Wesleyville, Canada
Current Conditions -  °F | °C
As of 12:38 PM on Friday 28 Nov 2014 (Local Time) from CYQX Reporting Station
Light Snow Light Snow  
Wind Chill: 18°   Ceiling: 600
Heat Index: 28°   Visibility: 4mi
Dew Point: 27°   Wind: 13mph
Humidity: 93%   Direction: 350°N
Pressure: 29.83"   Gusts: NA
Location:  49.15°N, 53.58°W
Report Text: CYQX 281538Z 35011KT 4SM -FZDZ -SG BR BKN006 BKN012 OVC025 M02/M03 A2983 RMK SF6SC1SC1 SLP111
Loading
Personal Weather Stations






























Interactive Weather Map New forecast layout! Learn more

10-Day Weather Forecast

Advertisements
Track Severe Weather on mobile